サンフランシスコ の空港の天気 - METARとTAF

サンフランシスコ国際空港 ( KSFO / SFO ) - アメリカ カリフォルニア州サンマテオ郡
飛行場実況気象(Metar)
観測時間07/18 04:56 PDT (07/18 11:56 UTC)
風向・風速西北西 2m/s
視程10km以上
天気現象
少しの雲 雲底高度 150m
全天の4割程度の雲 雲底高度 210m
全天の8割程度の雲 雲底高度 300m
気温12.8℃
湿度93%
気圧1014.9hPa
METARKSFO 181156Z 29003KT 10SM FEW005 SCT007 BKN010 13/12 A2997 RMK AO2 SLP149 T01280117 10139 20128 57003 $
過去の天気等 Google飛行場航空写真 Wunderground天気予報

過去48時間のMETAR

飛行場予報(TAF)
発表時間: 7/18 04:20 PDT (7/18 11:20 UTC)
予報対象時間: 18日5時 PDT ~ 19日11時 PDT
風向・風速西 4m/s
視程10km以上
全天を覆う雲 雲底高度 270m
18日10時 PDT から
風向・風速西北西 2m/s
視程10km以上
全天の4割程度の雲 雲底高度 300m
18日14時 PDT から
風向・風速西北西 9m/s 瞬間風速 12m/s
視程10km以上
少しの雲 雲底高度 460m
18日21時 PDT から
風向・風速西北西 6m/s
視程10km以上
少しの雲 雲底高度 300m
19日3時 PDT から
風向・風速西 4m/s
視程10km以上
全天を覆う雲 雲底高度 270m
KSFO 181120Z 1812/1918 28007KT P6SM OVC009
FM181700 29003KT P6SM SCT010
FM182100 30018G24KT P6SM FEW015
FM190400 29012KT P6SM FEW010
FM191000 28007KT P6SM OVC009